sensor_id;sensor_type;location;lat;lon;timestamp;P1;durP1;ratioP1;P2;durP2;ratioP2
28772;SDS011;15925;51.222;5.678;2022-12-08T00:00:23;15.73;;;7.23;;
28772;SDS011;15925;51.222;5.678;2022-12-08T00:02:48;13.33;;;7.37;;
28772;SDS011;15925;51.222;5.678;2022-12-08T00:05:14;17.00;;;7.80;;
28772;SDS011;15925;51.222;5.678;2022-12-08T00:07:59;16.60;;;6.88;;
28772;SDS011;15925;51.222;5.678;2022-12-08T00:10:43;20.30;;;8.40;;
28772;SDS011;15925;51.222;5.678;2022-12-08T00:13:09;18.48;;;8.98;;
28772;SDS011;15925;51.222;5.678;2022-12-08T00:15:35;39.30;;;9.03;;
28772;SDS011;15925;51.222;5.678;2022-12-08T00:18:00;14.60;;;7.97;;
28772;SDS011;15925;51.222;5.678;2022-12-08T00:20:26;21.10;;;7.90;;
28772;SDS011;15925;51.222;5.678;2022-12-08T00:22:52;15.73;;;8.13;;
28772;SDS011;15925;51.222;5.678;2022-12-08T00:25:18;14.37;;;8.33;;
28772;SDS011;15925;51.222;5.678;2022-12-08T00:27:43;20.83;;;6.38;;
28772;SDS011;15925;51.222;5.678;2022-12-08T00:30:09;17.90;;;8.07;;
28772;SDS011;15925;51.222;5.678;2022-12-08T00:32:35;17.55;;;7.65;;
28772;SDS011;15925;51.222;5.678;2022-12-08T00:35:02;13.23;;;7.03;;
28772;SDS011;15925;51.222;5.678;2022-12-08T00:37:28;14.02;;;6.13;;
28772;SDS011;15925;51.222;5.678;2022-12-08T00:39:54;12.33;;;6.10;;
28772;SDS011;15925;51.222;5.678;2022-12-08T00:42:20;16.33;;;6.15;;
28772;SDS011;15925;51.222;5.678;2022-12-08T00:44:45;22.27;;;7.60;;
28772;SDS011;15925;51.222;5.678;2022-12-08T00:47:12;15.57;;;6.65;;
28772;SDS011;15925;51.222;5.678;2022-12-08T00:49:38;16.25;;;5.97;;
28772;SDS011;15925;51.222;5.678;2022-12-08T00:52:05;12.35;;;5.47;;
28772;SDS011;15925;51.222;5.678;2022-12-08T00:54:30;15.15;;;6.47;;
28772;SDS011;15925;51.222;5.678;2022-12-08T00:56:56;15.00;;;5.63;;
28772;SDS011;15925;51.222;5.678;2022-12-08T00:59:22;10.47;;;5.00;;
28772;SDS011;15925;51.222;5.678;2022-12-08T01:01:48;17.20;;;7.13;;
28772;SDS011;15925;51.222;5.678;2022-12-08T01:04:15;15.68;;;5.95;;
28772;SDS011;15925;51.222;5.678;2022-12-08T01:06:42;12.75;;;5.80;;
28772;SDS011;15925;51.222;5.678;2022-12-08T01:09:09;21.75;;;5.72;;
28772;SDS011;15925;51.222;5.678;2022-12-08T01:11:36;13.07;;;6.95;;
28772;SDS011;15925;51.222;5.678;2022-12-08T01:14:02;10.23;;;5.63;;
28772;SDS011;15925;51.222;5.678;2022-12-08T01:16:29;15.85;;;6.13;;
28772;SDS011;15925;51.222;5.678;2022-12-08T01:18:57;12.77;;;5.97;;
28772;SDS011;15925;51.222;5.678;2022-12-08T01:21:23;14.80;;;6.00;;
28772;SDS011;15925;51.222;5.678;2022-12-08T01:23:50;15.35;;;7.03;;
28772;SDS011;15925;51.222;5.678;2022-12-08T01:26:16;9.80;;;5.75;;
28772;SDS011;15925;51.222;5.678;2022-12-08T01:28:44;13.43;;;5.70;;
28772;SDS011;15925;51.222;5.678;2022-12-08T01:31:11;7.32;;;4.72;;
28772;SDS011;15925;51.222;5.678;2022-12-08T01:33:39;11.20;;;5.68;;
28772;SDS011;15925;51.222;5.678;2022-12-08T01:36:05;11.75;;;5.75;;
28772;SDS011;15925;51.222;5.678;2022-12-08T01:38:31;13.13;;;6.13;;
28772;SDS011;15925;51.222;5.678;2022-12-08T01:40:57;13.50;;;5.33;;
28772;SDS011;15925;51.222;5.678;2022-12-08T01:43:23;4.95;;;3.35;;
28772;SDS011;15925;51.222;5.678;2022-12-08T01:45:49;10.90;;;4.65;;
28772;SDS011;15925;51.222;5.678;2022-12-08T01:48:17;10.47;;;5.07;;
28772;SDS011;15925;51.222;5.678;2022-12-08T01:50:47;9.65;;;4.68;;
28772;SDS011;15925;51.222;5.678;2022-12-08T01:55:51;10.77;;;6.32;;
28772;SDS011;15925;51.222;5.678;2022-12-08T01:58:31;9.98;;;4.13;;
28772;SDS011;15925;51.222;5.678;2022-12-08T02:01:01;8.90;;;4.88;;
28772;SDS011;15925;51.222;5.678;2022-12-08T02:03:28;14.50;;;5.80;;
28772;SDS011;15925;51.222;5.678;2022-12-08T02:05:59;15.13;;;7.10;;
28772;SDS011;15925;51.222;5.678;2022-12-08T02:08:25;12.07;;;5.22;;
28772;SDS011;15925;51.222;5.678;2022-12-08T02:10:53;12.07;;;5.22;;
28772;SDS011;15925;51.222;5.678;2022-12-08T02:13:19;7.50;;;4.77;;
28772;SDS011;15925;51.222;5.678;2022-12-08T02:18:24;9.40;;;5.50;;
28772;SDS011;15925;51.222;5.678;2022-12-08T02:30:06;7.15;;;4.03;;
28772;SDS011;15925;51.222;5.678;2022-12-08T02:38:46;12.60;;;4.85;;
28772;SDS011;15925;51.222;5.678;2022-12-08T02:41:31;10.27;;;4.40;;
28772;SDS011;15925;51.222;5.678;2022-12-08T02:44:06;12.57;;;4.50;;
28772;SDS011;15925;51.222;5.678;2022-12-08T02:46:42;9.38;;;5.13;;
28772;SDS011;15925;51.222;5.678;2022-12-08T02:49:15;8.43;;;4.47;;
28772;SDS011;15925;51.222;5.678;2022-12-08T02:51:41;9.30;;;4.07;;
28772;SDS011;15925;51.222;5.678;2022-12-08T02:54:06;6.70;;;3.83;;
28772;SDS011;15925;51.222;5.678;2022-12-08T02:59:35;7.75;;;4.25;;
28772;SDS011;15925;51.222;5.678;2022-12-08T03:09:55;8.60;;;4.00;;
28772;SDS011;15925;51.222;5.678;2022-12-08T03:12:32;5.93;;;3.70;;
28772;SDS011;15925;51.222;5.678;2022-12-08T03:15:08;8.57;;;3.97;;
28772;SDS011;15925;51.222;5.678;2022-12-08T03:17:37;9.45;;;4.63;;
28772;SDS011;15925;51.222;5.678;2022-12-08T03:20:06;9.13;;;3.45;;
28772;SDS011;15925;51.222;5.678;2022-12-08T03:22:35;11.50;;;4.63;;
28772;SDS011;15925;51.222;5.678;2022-12-08T03:25:03;12.10;;;4.63;;
28772;SDS011;15925;51.222;5.678;2022-12-08T03:29:56;14.60;;;4.93;;
28772;SDS011;15925;51.222;5.678;2022-12-08T03:32:43;7.25;;;4.45;;
28772;SDS011;15925;51.222;5.678;2022-12-08T03:35:15;10.27;;;4.97;;
28772;SDS011;15925;51.222;5.678;2022-12-08T03:37:44;7.47;;;4.43;;
28772;SDS011;15925;51.222;5.678;2022-12-08T03:40:12;19.73;;;7.03;;
28772;SDS011;15925;51.222;5.678;2022-12-08T03:42:40;12.68;;;6.43;;
28772;SDS011;15925;51.222;5.678;2022-12-08T03:45:06;20.17;;;7.67;;
28772;SDS011;15925;51.222;5.678;2022-12-08T03:47:32;18.73;;;7.07;;
28772;SDS011;15925;51.222;5.678;2022-12-08T03:49:58;15.63;;;6.82;;
28772;SDS011;15925;51.222;5.678;2022-12-08T03:52:23;14.00;;;6.93;;
28772;SDS011;15925;51.222;5.678;2022-12-08T03:54:49;16.63;;;8.03;;
28772;SDS011;15925;51.222;5.678;2022-12-08T03:57:15;21.90;;;7.97;;
28772;SDS011;15925;51.222;5.678;2022-12-08T03:59:41;19.92;;;9.07;;
28772;SDS011;15925;51.222;5.678;2022-12-08T04:02:07;24.77;;;9.53;;
28772;SDS011;15925;51.222;5.678;2022-12-08T04:04:33;20.85;;;9.02;;
28772;SDS011;15925;51.222;5.678;2022-12-08T04:06:59;19.10;;;8.87;;
28772;SDS011;15925;51.222;5.678;2022-12-08T04:09:25;18.47;;;8.27;;
28772;SDS011;15925;51.222;5.678;2022-12-08T04:11:50;21.90;;;9.67;;
28772;SDS011;15925;51.222;5.678;2022-12-08T04:14:16;20.83;;;8.53;;
28772;SDS011;15925;51.222;5.678;2022-12-08T04:16:42;20.13;;;8.73;;
28772;SDS011;15925;51.222;5.678;2022-12-08T04:19:08;43.87;;;9.80;;
28772;SDS011;15925;51.222;5.678;2022-12-08T04:21:33;24.70;;;9.20;;
28772;SDS011;15925;51.222;5.678;2022-12-08T04:23:59;36.40;;;9.50;;
28772;SDS011;15925;51.222;5.678;2022-12-08T04:26:25;21.58;;;8.25;;
28772;SDS011;15925;51.222;5.678;2022-12-08T04:28:51;31.60;;;8.27;;
28772;SDS011;15925;51.222;5.678;2022-12-08T04:31:16;16.60;;;8.67;;
28772;SDS011;15925;51.222;5.678;2022-12-08T04:33:43;16.93;;;6.97;;
28772;SDS011;15925;51.222;5.678;2022-12-08T04:36:09;12.10;;;5.80;;
28772;SDS011;15925;51.222;5.678;2022-12-08T04:38:35;18.63;;;8.20;;
28772;SDS011;15925;51.222;5.678;2022-12-08T04:41:01;19.45;;;9.18;;
28772;SDS011;15925;51.222;5.678;2022-12-08T04:43:27;16.52;;;7.53;;
28772;SDS011;15925;51.222;5.678;2022-12-08T04:45:53;19.60;;;7.32;;
28772;SDS011;15925;51.222;5.678;2022-12-08T04:48:20;19.05;;;8.90;;
28772;SDS011;15925;51.222;5.678;2022-12-08T04:50:46;19.52;;;8.13;;
28772;SDS011;15925;51.222;5.678;2022-12-08T04:53:12;21.13;;;9.10;;
28772;SDS011;15925;51.222;5.678;2022-12-08T04:55:38;22.58;;;7.50;;
28772;SDS011;15925;51.222;5.678;2022-12-08T04:58:12;17.65;;;7.50;;
28772;SDS011;15925;51.222;5.678;2022-12-08T05:00:39;14.18;;;6.97;;
28772;SDS011;15925;51.222;5.678;2022-12-08T05:03:05;18.58;;;7.80;;
28772;SDS011;15925;51.222;5.678;2022-12-08T05:05:31;16.38;;;7.25;;
28772;SDS011;15925;51.222;5.678;2022-12-08T05:07:57;15.63;;;7.07;;
28772;SDS011;15925;51.222;5.678;2022-12-08T05:10:22;16.90;;;6.83;;
28772;SDS011;15925;51.222;5.678;2022-12-08T05:12:48;17.50;;;7.30;;
28772;SDS011;15925;51.222;5.678;2022-12-08T05:15:14;14.70;;;7.43;;
28772;SDS011;15925;51.222;5.678;2022-12-08T05:17:39;18.57;;;6.30;;
28772;SDS011;15925;51.222;5.678;2022-12-08T05:20:05;17.60;;;7.07;;
28772;SDS011;15925;51.222;5.678;2022-12-08T05:22:32;19.42;;;6.72;;
28772;SDS011;15925;51.222;5.678;2022-12-08T05:24:57;16.10;;;7.73;;
28772;SDS011;15925;51.222;5.678;2022-12-08T05:27:23;12.67;;;7.00;;
28772;SDS011;15925;51.222;5.678;2022-12-08T05:29:49;18.67;;;7.73;;
28772;SDS011;15925;51.222;5.678;2022-12-08T05:32:15;13.87;;;6.17;;
28772;SDS011;15925;51.222;5.678;2022-12-08T05:34:41;21.67;;;8.90;;
28772;SDS011;15925;51.222;5.678;2022-12-08T05:37:07;20.60;;;7.27;;
28772;SDS011;15925;51.222;5.678;2022-12-08T05:39:33;20.07;;;7.13;;
28772;SDS011;15925;51.222;5.678;2022-12-08T05:41:58;16.00;;;6.50;;
28772;SDS011;15925;51.222;5.678;2022-12-08T05:44:24;10.50;;;5.43;;
28772;SDS011;15925;51.222;5.678;2022-12-08T05:46:51;10.35;;;5.20;;
28772;SDS011;15925;51.222;5.678;2022-12-08T05:49:17;10.77;;;4.63;;
28772;SDS011;15925;51.222;5.678;2022-12-08T05:51:42;10.88;;;4.68;;
28772;SDS011;15925;51.222;5.678;2022-12-08T05:54:08;11.47;;;5.43;;
28772;SDS011;15925;51.222;5.678;2022-12-08T05:56:34;12.63;;;5.22;;
28772;SDS011;15925;51.222;5.678;2022-12-08T05:59:00;14.97;;;6.37;;
28772;SDS011;15925;51.222;5.678;2022-12-08T06:01:27;18.58;;;6.00;;
28772;SDS011;15925;51.222;5.678;2022-12-08T06:03:55;17.08;;;7.53;;
28772;SDS011;15925;51.222;5.678;2022-12-08T06:06:22;18.55;;;8.27;;
28772;SDS011;15925;51.222;5.678;2022-12-08T06:08:48;24.13;;;8.30;;
28772;SDS011;15925;51.222;5.678;2022-12-08T06:11:22;11.70;;;5.57;;
28772;SDS011;15925;51.222;5.678;2022-12-08T06:13:50;14.95;;;6.40;;
28772;SDS011;15925;51.222;5.678;2022-12-08T06:16:16;17.85;;;7.60;;
28772;SDS011;15925;51.222;5.678;2022-12-08T06:18:42;14.13;;;6.28;;
28772;SDS011;15925;51.222;5.678;2022-12-08T06:21:10;21.30;;;9.10;;
28772;SDS011;15925;51.222;5.678;2022-12-08T06:23:36;28.77;;;6.57;;
28772;SDS011;15925;51.222;5.678;2022-12-08T06:26:03;16.20;;;7.10;;
28772;SDS011;15925;51.222;5.678;2022-12-08T06:28:34;22.27;;;7.97;;
28772;SDS011;15925;51.222;5.678;2022-12-08T06:31:04;25.33;;;7.55;;
28772;SDS011;15925;51.222;5.678;2022-12-08T06:33:36;16.73;;;7.57;;
28772;SDS011;15925;51.222;5.678;2022-12-08T06:36:02;23.95;;;8.88;;
28772;SDS011;15925;51.222;5.678;2022-12-08T06:38:29;18.50;;;7.65;;
28772;SDS011;15925;51.222;5.678;2022-12-08T06:40:55;13.43;;;7.50;;
28772;SDS011;15925;51.222;5.678;2022-12-08T06:43:22;13.85;;;7.28;;
28772;SDS011;15925;51.222;5.678;2022-12-08T06:48:15;19.45;;;7.25;;
28772;SDS011;15925;51.222;5.678;2022-12-08T06:50:41;15.73;;;6.30;;
28772;SDS011;15925;51.222;5.678;2022-12-08T06:53:07;18.33;;;7.00;;
28772;SDS011;15925;51.222;5.678;2022-12-08T06:55:35;19.52;;;8.50;;
28772;SDS011;15925;51.222;5.678;2022-12-08T06:58:00;23.40;;;8.07;;
28772;SDS011;15925;51.222;5.678;2022-12-08T07:00:26;18.93;;;7.20;;
28772;SDS011;15925;51.222;5.678;2022-12-08T07:02:52;20.50;;;7.47;;
28772;SDS011;15925;51.222;5.678;2022-12-08T07:05:18;17.67;;;7.22;;
28772;SDS011;15925;51.222;5.678;2022-12-08T07:07:44;19.60;;;8.53;;
28772;SDS011;15925;51.222;5.678;2022-12-08T07:10:09;14.87;;;6.43;;
28772;SDS011;15925;51.222;5.678;2022-12-08T07:12:35;19.57;;;8.50;;
28772;SDS011;15925;51.222;5.678;2022-12-08T07:15:02;15.02;;;6.13;;
28772;SDS011;15925;51.222;5.678;2022-12-08T07:17:28;16.08;;;5.53;;
28772;SDS011;15925;51.222;5.678;2022-12-08T07:19:53;14.67;;;7.57;;
28772;SDS011;15925;51.222;5.678;2022-12-08T07:22:19;9.23;;;4.77;;
28772;SDS011;15925;51.222;5.678;2022-12-08T07:24:45;13.83;;;6.57;;
28772;SDS011;15925;51.222;5.678;2022-12-08T07:27:11;20.58;;;7.13;;
28772;SDS011;15925;51.222;5.678;2022-12-08T07:29:36;8.40;;;5.27;;
28772;SDS011;15925;51.222;5.678;2022-12-08T07:32:02;12.33;;;5.77;;
28772;SDS011;15925;51.222;5.678;2022-12-08T07:34:28;14.98;;;6.25;;
28772;SDS011;15925;51.222;5.678;2022-12-08T07:36:54;10.80;;;5.53;;
28772;SDS011;15925;51.222;5.678;2022-12-08T07:39:20;15.17;;;4.80;;
28772;SDS011;15925;51.222;5.678;2022-12-08T07:41:45;22.00;;;5.77;;
28772;SDS011;15925;51.222;5.678;2022-12-08T07:44:11;9.10;;;4.10;;
28772;SDS011;15925;51.222;5.678;2022-12-08T07:46:37;12.88;;;4.28;;
28772;SDS011;15925;51.222;5.678;2022-12-08T07:49:03;8.30;;;3.67;;
28772;SDS011;15925;51.222;5.678;2022-12-08T07:51:29;9.43;;;5.27;;
28772;SDS011;15925;51.222;5.678;2022-12-08T07:53:54;12.77;;;6.43;;
28772;SDS011;15925;51.222;5.678;2022-12-08T07:56:20;27.07;;;5.77;;
28772;SDS011;15925;51.222;5.678;2022-12-08T07:58:46;15.07;;;5.10;;
28772;SDS011;15925;51.222;5.678;2022-12-08T08:03:53;11.57;;;4.85;;
28772;SDS011;15925;51.222;5.678;2022-12-08T08:06:19;18.20;;;5.72;;
28772;SDS011;15925;51.222;5.678;2022-12-08T08:08:45;12.47;;;6.03;;
28772;SDS011;15925;51.222;5.678;2022-12-08T08:11:11;9.77;;;5.83;;
28772;SDS011;15925;51.222;5.678;2022-12-08T08:13:37;17.50;;;6.30;;
28772;SDS011;15925;51.222;5.678;2022-12-08T08:16:03;11.73;;;5.63;;
28772;SDS011;15925;51.222;5.678;2022-12-08T08:18:34;13.35;;;4.88;;
28772;SDS011;15925;51.222;5.678;2022-12-08T08:21:00;24.42;;;5.97;;
28772;SDS011;15925;51.222;5.678;2022-12-08T08:23:26;12.65;;;5.20;;
28772;SDS011;15925;51.222;5.678;2022-12-08T08:25:52;12.60;;;4.95;;
28772;SDS011;15925;51.222;5.678;2022-12-08T08:28:18;8.73;;;5.03;;
28772;SDS011;15925;51.222;5.678;2022-12-08T08:30:45;15.13;;;5.22;;
28772;SDS011;15925;51.222;5.678;2022-12-08T08:33:11;10.63;;;4.15;;
28772;SDS011;15925;51.222;5.678;2022-12-08T08:35:38;17.38;;;5.22;;
28772;SDS011;15925;51.222;5.678;2022-12-08T08:38:04;11.80;;;5.90;;
28772;SDS011;15925;51.222;5.678;2022-12-08T08:40:30;7.57;;;3.67;;
28772;SDS011;15925;51.222;5.678;2022-12-08T08:42:56;15.30;;;5.87;;
28772;SDS011;15925;51.222;5.678;2022-12-08T08:45:24;19.80;;;6.10;;
28772;SDS011;15925;51.222;5.678;2022-12-08T08:47:49;11.57;;;4.50;;
28772;SDS011;15925;51.222;5.678;2022-12-08T08:50:15;17.40;;;4.73;;
28772;SDS011;15925;51.222;5.678;2022-12-08T08:52:41;13.30;;;5.82;;
28772;SDS011;15925;51.222;5.678;2022-12-08T08:55:07;11.47;;;5.03;;
28772;SDS011;15925;51.222;5.678;2022-12-08T08:57:33;6.80;;;3.53;;
28772;SDS011;15925;51.222;5.678;2022-12-08T08:59:59;9.45;;;4.63;;
28772;SDS011;15925;51.222;5.678;2022-12-08T09:02:24;11.30;;;5.50;;
28772;SDS011;15925;51.222;5.678;2022-12-08T09:04:50;8.83;;;4.13;;
28772;SDS011;15925;51.222;5.678;2022-12-08T09:07:16;10.73;;;5.50;;
28772;SDS011;15925;51.222;5.678;2022-12-08T09:09:42;18.73;;;5.77;;
28772;SDS011;15925;51.222;5.678;2022-12-08T09:12:08;11.48;;;3.47;;
28772;SDS011;15925;51.222;5.678;2022-12-08T09:14:34;12.13;;;4.68;;
28772;SDS011;15925;51.222;5.678;2022-12-08T09:17:00;14.63;;;6.30;;
28772;SDS011;15925;51.222;5.678;2022-12-08T09:19:26;9.00;;;4.38;;
28772;SDS011;15925;51.222;5.678;2022-12-08T09:21:52;7.50;;;4.40;;
28772;SDS011;15925;51.222;5.678;2022-12-08T09:24:17;6.93;;;4.13;;
28772;SDS011;15925;51.222;5.678;2022-12-08T09:26:43;14.70;;;5.27;;
28772;SDS011;15925;51.222;5.678;2022-12-08T09:29:10;12.05;;;5.55;;
28772;SDS011;15925;51.222;5.678;2022-12-08T09:31:37;10.90;;;5.75;;
28772;SDS011;15925;51.222;5.678;2022-12-08T09:34:03;12.80;;;5.40;;
28772;SDS011;15925;51.222;5.678;2022-12-08T09:36:29;10.93;;;3.67;;
28772;SDS011;15925;51.222;5.678;2022-12-08T09:38:55;13.23;;;5.30;;
28772;SDS011;15925;51.222;5.678;2022-12-08T09:49:26;13.93;;;4.93;;
28772;SDS011;15925;51.222;5.678;2022-12-08T09:52:21;12.50;;;4.50;;
28772;SDS011;15925;51.222;5.678;2022-12-08T09:54:57;16.88;;;4.85;;
28772;SDS011;15925;51.222;5.678;2022-12-08T09:57:27;10.13;;;4.75;;
28772;SDS011;15925;51.222;5.678;2022-12-08T10:00:00;11.23;;;5.13;;
28772;SDS011;15925;51.222;5.678;2022-12-08T10:02:30;10.35;;;4.53;;
28772;SDS011;15925;51.222;5.678;2022-12-08T10:04:57;10.05;;;4.03;;
28772;SDS011;15925;51.222;5.678;2022-12-08T10:10:51;8.07;;;3.75;;
28772;SDS011;15925;51.222;5.678;2022-12-08T10:16:14;9.00;;;4.45;;
28772;SDS011;15925;51.222;5.678;2022-12-08T10:18:56;10.50;;;4.80;;
28772;SDS011;15925;51.222;5.678;2022-12-08T10:21:29;8.43;;;5.43;;
28772;SDS011;15925;51.222;5.678;2022-12-08T10:23:57;17.45;;;3.60;;
28772;SDS011;15925;51.222;5.678;2022-12-08T10:26:30;10.00;;;5.00;;
28772;SDS011;15925;51.222;5.678;2022-12-08T10:28:57;6.45;;;3.90;;
28772;SDS011;15925;51.222;5.678;2022-12-08T10:31:29;11.63;;;3.83;;
28772;SDS011;15925;51.222;5.678;2022-12-08T10:33:57;10.10;;;4.45;;
28772;SDS011;15925;51.222;5.678;2022-12-08T10:36:44;10.10;;;3.72;;
28772;SDS011;15925;51.222;5.678;2022-12-08T10:39:31;12.97;;;5.23;;
28772;SDS011;15925;51.222;5.678;2022-12-08T10:44:36;9.35;;;4.63;;
28772;SDS011;15925;51.222;5.678;2022-12-08T10:47:14;10.63;;;4.22;;
28772;SDS011;15925;51.222;5.678;2022-12-08T10:49:44;10.15;;;3.92;;
28772;SDS011;15925;51.222;5.678;2022-12-08T10:52:22;19.73;;;5.23;;
28772;SDS011;15925;51.222;5.678;2022-12-08T10:54:52;6.90;;;3.40;;
28772;SDS011;15925;51.222;5.678;2022-12-08T10:57:19;12.38;;;4.70;;
28772;SDS011;15925;51.222;5.678;2022-12-08T10:59:46;14.40;;;5.57;;
28772;SDS011;15925;51.222;5.678;2022-12-08T11:02:17;19.50;;;5.17;;
28772;SDS011;15925;51.222;5.678;2022-12-08T11:04:44;6.50;;;3.25;;
28772;SDS011;15925;51.222;5.678;2022-12-08T11:09:45;15.00;;;3.40;;
28772;SDS011;15925;51.222;5.678;2022-12-08T11:12:14;8.25;;;3.92;;
28772;SDS011;15925;51.222;5.678;2022-12-08T11:17:09;10.43;;;3.37;;
28772;SDS011;15925;51.222;5.678;2022-12-08T11:20:02;8.07;;;4.53;;
28772;SDS011;15925;51.222;5.678;2022-12-08T11:22:43;13.32;;;3.92;;
28772;SDS011;15925;51.222;5.678;2022-12-08T11:30:22;7.60;;;3.60;;
28772;SDS011;15925;51.222;5.678;2022-12-08T11:33:17;7.17;;;3.30;;
28772;SDS011;15925;51.222;5.678;2022-12-08T11:35:44;9.50;;;3.63;;
28772;SDS011;15925;51.222;5.678;2022-12-08T11:38:15;19.65;;;4.43;;
28772;SDS011;15925;51.222;5.678;2022-12-08T11:40:56;8.43;;;3.78;;
28772;SDS011;15925;51.222;5.678;2022-12-08T11:46:03;7.90;;;3.80;;
28772;SDS011;15925;51.222;5.678;2022-12-08T11:49:00;7.63;;;3.50;;
28772;SDS011;15925;51.222;5.678;2022-12-08T11:56:37;9.95;;;3.92;;
28772;SDS011;15925;51.222;5.678;2022-12-08T11:59:16;10.95;;;3.03;;
28772;SDS011;15925;51.222;5.678;2022-12-08T12:01:53;8.73;;;3.55;;
28772;SDS011;15925;51.222;5.678;2022-12-08T12:04:21;10.90;;;2.65;;
28772;SDS011;15925;51.222;5.678;2022-12-08T12:12:47;11.73;;;4.00;;
28772;SDS011;15925;51.222;5.678;2022-12-08T12:20:50;19.33;;;3.47;;
28772;SDS011;15925;51.222;5.678;2022-12-08T12:24:02;6.93;;;3.47;;
28772;SDS011;15925;51.222;5.678;2022-12-08T12:26:17;7.32;;;3.15;;
28772;SDS011;15925;51.222;5.678;2022-12-08T12:28:50;7.03;;;3.83;;
28772;SDS011;15925;51.222;5.678;2022-12-08T12:31:21;8.10;;;3.58;;
28772;SDS011;15925;51.222;5.678;2022-12-08T12:33:54;7.63;;;3.42;;
28772;SDS011;15925;51.222;5.678;2022-12-08T12:36:30;8.05;;;3.92;;
28772;SDS011;15925;51.222;5.678;2022-12-08T12:38:56;10.50;;;3.30;;
28772;SDS011;15925;51.222;5.678;2022-12-08T12:55:15;6.13;;;2.72;;
28772;SDS011;15925;51.222;5.678;2022-12-08T13:00:21;7.53;;;3.45;;
28772;SDS011;15925;51.222;5.678;2022-12-08T13:02:50;13.43;;;4.32;;
28772;SDS011;15925;51.222;5.678;2022-12-08T13:07:55;7.70;;;3.67;;
28772;SDS011;15925;51.222;5.678;2022-12-08T13:10:28;6.82;;;3.65;;
28772;SDS011;15925;51.222;5.678;2022-12-08T13:15:37;16.58;;;3.53;;
28772;SDS011;15925;51.222;5.678;2022-12-08T13:18:04;11.52;;;3.67;;
28772;SDS011;15925;51.222;5.678;2022-12-08T13:20:39;10.13;;;4.15;;
28772;SDS011;15925;51.222;5.678;2022-12-08T13:23:26;8.73;;;4.15;;
28772;SDS011;15925;51.222;5.678;2022-12-08T13:28:42;10.88;;;4.68;;
28772;SDS011;15925;51.222;5.678;2022-12-08T13:37:07;9.55;;;3.95;;
28772;SDS011;15925;51.222;5.678;2022-12-08T13:44:55;9.88;;;5.28;;
28772;SDS011;15925;51.222;5.678;2022-12-08T13:50:18;10.57;;;4.85;;
28772;SDS011;15925;51.222;5.678;2022-12-08T13:55:54;14.40;;;4.28;;
28772;SDS011;15925;51.222;5.678;2022-12-08T13:58:28;9.55;;;4.38;;
28772;SDS011;15925;51.222;5.678;2022-12-08T14:03:48;9.65;;;4.28;;
28772;SDS011;15925;51.222;5.678;2022-12-08T14:06:18;15.50;;;5.75;;
28772;SDS011;15925;51.222;5.678;2022-12-08T14:08:59;8.75;;;3.92;;
28772;SDS011;15925;51.222;5.678;2022-12-08T14:11:28;8.55;;;4.88;;
28772;SDS011;15925;51.222;5.678;2022-12-08T14:14:07;11.77;;;4.82;;
28772;SDS011;15925;51.222;5.678;2022-12-08T14:16:53;10.68;;;4.65;;
28772;SDS011;15925;51.222;5.678;2022-12-08T14:19:24;10.00;;;5.35;;
28772;SDS011;15925;51.222;5.678;2022-12-08T14:21:55;17.55;;;6.07;;
28772;SDS011;15925;51.222;5.678;2022-12-08T14:24:27;12.70;;;5.03;;
28772;SDS011;15925;51.222;5.678;2022-12-08T14:26:56;9.43;;;3.78;;
28772;SDS011;15925;51.222;5.678;2022-12-08T14:32:04;8.13;;;3.67;;
28772;SDS011;15925;51.222;5.678;2022-12-08T14:34:57;11.75;;;3.58;;
28772;SDS011;15925;51.222;5.678;2022-12-08T14:37:27;25.00;;;5.28;;
28772;SDS011;15925;51.222;5.678;2022-12-08T14:39:57;11.57;;;5.35;;
28772;SDS011;15925;51.222;5.678;2022-12-08T14:42:26;13.93;;;4.65;;
28772;SDS011;15925;51.222;5.678;2022-12-08T14:45:26;7.70;;;4.10;;
28772;SDS011;15925;51.222;5.678;2022-12-08T14:47:45;9.30;;;4.82;;
28772;SDS011;15925;51.222;5.678;2022-12-08T14:53:02;11.57;;;4.18;;
28772;SDS011;15925;51.222;5.678;2022-12-08T14:55:34;10.75;;;5.55;;
28772;SDS011;15925;51.222;5.678;2022-12-08T14:58:01;10.43;;;4.35;;
28772;SDS011;15925;51.222;5.678;2022-12-08T15:00:27;7.70;;;3.80;;
28772;SDS011;15925;51.222;5.678;2022-12-08T15:02:53;40.67;;;4.57;;
28772;SDS011;15925;51.222;5.678;2022-12-08T15:05:31;6.70;;;3.15;;
28772;SDS011;15925;51.222;5.678;2022-12-08T15:08:00;17.43;;;4.37;;
28772;SDS011;15925;51.222;5.678;2022-12-08T15:10:28;5.20;;;3.70;;
28772;SDS011;15925;51.222;5.678;2022-12-08T15:13:00;9.43;;;3.85;;
28772;SDS011;15925;51.222;5.678;2022-12-08T15:15:30;9.05;;;3.92;;
28772;SDS011;15925;51.222;5.678;2022-12-08T15:18:15;15.05;;;3.75;;
28772;SDS011;15925;51.222;5.678;2022-12-08T15:23:27;7.50;;;2.72;;
28772;SDS011;15925;51.222;5.678;2022-12-08T15:26:03;10.73;;;3.85;;
28772;SDS011;15925;51.222;5.678;2022-12-08T15:28:29;13.88;;;5.82;;
28772;SDS011;15925;51.222;5.678;2022-12-08T15:30:55;11.13;;;3.43;;
28772;SDS011;15925;51.222;5.678;2022-12-08T15:33:21;12.07;;;4.97;;
28772;SDS011;15925;51.222;5.678;2022-12-08T15:35:47;22.87;;;3.53;;
28772;SDS011;15925;51.222;5.678;2022-12-08T15:38:15;10.75;;;4.75;;
28772;SDS011;15925;51.222;5.678;2022-12-08T15:40:45;10.77;;;4.95;;
28772;SDS011;15925;51.222;5.678;2022-12-08T15:43:11;13.87;;;3.43;;
28772;SDS011;15925;51.222;5.678;2022-12-08T15:45:37;8.73;;;4.43;;
28772;SDS011;15925;51.222;5.678;2022-12-08T15:48:04;6.00;;;3.50;;
28772;SDS011;15925;51.222;5.678;2022-12-08T15:50:29;9.02;;;4.07;;
28772;SDS011;15925;51.222;5.678;2022-12-08T15:52:55;11.73;;;3.70;;
28772;SDS011;15925;51.222;5.678;2022-12-08T15:55:21;7.77;;;3.37;;
28772;SDS011;15925;51.222;5.678;2022-12-08T15:57:51;7.80;;;4.20;;
28772;SDS011;15925;51.222;5.678;2022-12-08T16:02:47;11.40;;;3.17;;
28772;SDS011;15925;51.222;5.678;2022-12-08T16:07:39;6.97;;;3.08;;
28772;SDS011;15925;51.222;5.678;2022-12-08T16:10:05;8.30;;;3.05;;
28772;SDS011;15925;51.222;5.678;2022-12-08T16:12:32;11.05;;;3.97;;
28772;SDS011;15925;51.222;5.678;2022-12-08T16:15:16;7.90;;;4.25;;
28772;SDS011;15925;51.222;5.678;2022-12-08T16:17:42;11.17;;;3.13;;
28772;SDS011;15925;51.222;5.678;2022-12-08T16:20:12;9.00;;;3.85;;
28772;SDS011;15925;51.222;5.678;2022-12-08T16:22:40;9.40;;;3.38;;
28772;SDS011;15925;51.222;5.678;2022-12-08T16:25:07;14.38;;;3.97;;
28772;SDS011;15925;51.222;5.678;2022-12-08T16:27:34;18.60;;;3.08;;
28772;SDS011;15925;51.222;5.678;2022-12-08T16:30:05;10.60;;;2.72;;
28772;SDS011;15925;51.222;5.678;2022-12-08T16:32:33;9.45;;;3.40;;
28772;SDS011;15925;51.222;5.678;2022-12-08T16:34:59;7.93;;;3.40;;
28772;SDS011;15925;51.222;5.678;2022-12-08T16:37:25;10.80;;;4.27;;
28772;SDS011;15925;51.222;5.678;2022-12-08T16:39:53;5.28;;;2.58;;
28772;SDS011;15925;51.222;5.678;2022-12-08T16:47:35;6.03;;;3.30;;
28772;SDS011;15925;51.222;5.678;2022-12-08T16:50:05;11.77;;;3.75;;
28772;SDS011;15925;51.222;5.678;2022-12-08T16:52:36;8.57;;;3.30;;
28772;SDS011;15925;51.222;5.678;2022-12-08T16:55:05;14.90;;;3.83;;
28772;SDS011;15925;51.222;5.678;2022-12-08T16:57:33;7.57;;;3.05;;
28772;SDS011;15925;51.222;5.678;2022-12-08T16:59:58;10.10;;;4.20;;
28772;SDS011;15925;51.222;5.678;2022-12-08T17:02:24;8.27;;;3.37;;
28772;SDS011;15925;51.222;5.678;2022-12-08T17:04:50;6.67;;;3.43;;
28772;SDS011;15925;51.222;5.678;2022-12-08T17:07:16;7.30;;;2.73;;
28772;SDS011;15925;51.222;5.678;2022-12-08T17:09:41;5.57;;;3.40;;
28772;SDS011;15925;51.222;5.678;2022-12-08T17:12:07;4.40;;;3.30;;
28772;SDS011;15925;51.222;5.678;2022-12-08T17:17:00;7.38;;;3.33;;